sensor_id;sensor_type;location;lat;lon;timestamp;P1;durP1;ratioP1;P2;durP2;ratioP2
57433;SDS011;43277;52.672;6.984;2023-01-28T00:01:06;13.27;;;10.68;;
57433;SDS011;43277;52.672;6.984;2023-01-28T00:03:33;15.68;;;14.27;;
57433;SDS011;43277;52.672;6.984;2023-01-28T00:06:03;15.57;;;11.88;;
57433;SDS011;43277;52.672;6.984;2023-01-28T00:08:30;14.93;;;10.95;;
57433;SDS011;43277;52.672;6.984;2023-01-28T00:10:58;13.75;;;11.40;;
57433;SDS011;43277;52.672;6.984;2023-01-28T00:13:25;14.18;;;11.50;;
57433;SDS011;43277;52.672;6.984;2023-01-28T00:15:54;16.25;;;14.85;;
57433;SDS011;43277;52.672;6.984;2023-01-28T00:18:26;16.08;;;14.68;;
57433;SDS011;43277;52.672;6.984;2023-01-28T00:21:02;15.43;;;14.02;;
57433;SDS011;43277;52.672;6.984;2023-01-28T00:23:34;15.20;;;13.90;;
57433;SDS011;43277;52.672;6.984;2023-01-28T00:26:02;12.48;;;10.30;;
57433;SDS011;43277;52.672;6.984;2023-01-28T00:28:29;12.85;;;10.82;;
57433;SDS011;43277;52.672;6.984;2023-01-28T00:30:55;14.32;;;13.13;;
57433;SDS011;43277;52.672;6.984;2023-01-28T00:33:21;13.85;;;12.55;;
57433;SDS011;43277;52.672;6.984;2023-01-28T00:35:47;15.40;;;14.10;;
57433;SDS011;43277;52.672;6.984;2023-01-28T00:38:21;15.05;;;13.75;;
57433;SDS011;43277;52.672;6.984;2023-01-28T00:40:46;14.50;;;11.63;;
57433;SDS011;43277;52.672;6.984;2023-01-28T00:43:12;15.10;;;10.98;;
57433;SDS011;43277;52.672;6.984;2023-01-28T00:45:38;13.35;;;11.38;;
57433;SDS011;43277;52.672;6.984;2023-01-28T00:48:03;15.98;;;14.43;;
57433;SDS011;43277;52.672;6.984;2023-01-28T00:50:30;16.73;;;15.23;;
57433;SDS011;43277;52.672;6.984;2023-01-28T00:52:55;15.35;;;11.60;;
57433;SDS011;43277;52.672;6.984;2023-01-28T00:55:21;14.70;;;11.25;;
57433;SDS011;43277;52.672;6.984;2023-01-28T00:57:46;14.05;;;12.85;;
57433;SDS011;43277;52.672;6.984;2023-01-28T01:00:12;13.60;;;11.20;;
57433;SDS011;43277;52.672;6.984;2023-01-28T01:02:38;13.35;;;12.13;;
57433;SDS011;43277;52.672;6.984;2023-01-28T01:05:04;14.85;;;13.55;;
57433;SDS011;43277;52.672;6.984;2023-01-28T01:07:30;12.98;;;11.88;;
57433;SDS011;43277;52.672;6.984;2023-01-28T01:09:59;14.32;;;13.13;;
57433;SDS011;43277;52.672;6.984;2023-01-28T01:12:27;13.35;;;12.15;;
57433;SDS011;43277;52.672;6.984;2023-01-28T01:14:53;13.57;;;11.07;;
57433;SDS011;43277;52.672;6.984;2023-01-28T01:17:19;13.25;;;11.40;;
57433;SDS011;43277;52.672;6.984;2023-01-28T01:19:45;14.73;;;13.38;;
57433;SDS011;43277;52.672;6.984;2023-01-28T01:22:11;14.23;;;13.02;;
57433;SDS011;43277;52.672;6.984;2023-01-28T01:24:37;13.10;;;11.23;;
57433;SDS011;43277;52.672;6.984;2023-01-28T01:27:02;13.75;;;12.45;;
57433;SDS011;43277;52.672;6.984;2023-01-28T01:29:30;12.60;;;10.57;;
57433;SDS011;43277;52.672;6.984;2023-01-28T01:31:58;12.98;;;10.85;;
57433;SDS011;43277;52.672;6.984;2023-01-28T01:34:24;13.68;;;12.38;;
57433;SDS011;43277;52.672;6.984;2023-01-28T01:36:50;13.88;;;12.68;;
57433;SDS011;43277;52.672;6.984;2023-01-28T01:39:15;15.18;;;13.77;;
57433;SDS011;43277;52.672;6.984;2023-01-28T01:41:41;15.30;;;10.93;;
57433;SDS011;43277;52.672;6.984;2023-01-28T01:44:54;14.75;;;13.35;;
57433;SDS011;43277;52.672;6.984;2023-01-28T01:47:11;14.15;;;10.65;;
57433;SDS011;43277;52.672;6.984;2023-01-28T01:49:38;12.73;;;10.23;;
57433;SDS011;43277;52.672;6.984;2023-01-28T01:52:11;13.98;;;12.68;;
57433;SDS011;43277;52.672;6.984;2023-01-28T01:54:40;13.88;;;12.52;;
57433;SDS011;43277;52.672;6.984;2023-01-28T01:57:09;12.10;;;11.00;;
57433;SDS011;43277;52.672;6.984;2023-01-28T01:59:40;12.65;;;10.75;;
57433;SDS011;43277;52.672;6.984;2023-01-28T02:02:07;15.27;;;11.52;;
57433;SDS011;43277;52.672;6.984;2023-01-28T02:04:36;15.02;;;13.73;;
57433;SDS011;43277;52.672;6.984;2023-01-28T02:07:04;15.10;;;10.40;;
57433;SDS011;43277;52.672;6.984;2023-01-28T02:09:33;13.43;;;12.23;;
57433;SDS011;43277;52.672;6.984;2023-01-28T02:12:20;13.18;;;10.55;;
57433;SDS011;43277;52.672;6.984;2023-01-28T02:15:00;14.57;;;11.37;;
57433;SDS011;43277;52.672;6.984;2023-01-28T02:17:30;15.23;;;13.85;;
57433;SDS011;43277;52.672;6.984;2023-01-28T02:20:00;16.00;;;14.70;;
57433;SDS011;43277;52.672;6.984;2023-01-28T02:28:51;13.40;;;10.98;;
57433;SDS011;43277;52.672;6.984;2023-01-28T02:38:28;16.92;;;15.52;;
57433;SDS011;43277;52.672;6.984;2023-01-28T02:40:36;16.23;;;14.82;;
57433;SDS011;43277;52.672;6.984;2023-01-28T02:45:56;18.08;;;16.48;;
57433;SDS011;43277;52.672;6.984;2023-01-28T02:48:42;15.57;;;12.18;;
57433;SDS011;43277;52.672;6.984;2023-01-28T02:53:56;15.63;;;12.48;;
57433;SDS011;43277;52.672;6.984;2023-01-28T02:59:21;17.95;;;16.38;;
57433;SDS011;43277;52.672;6.984;2023-01-28T03:02:09;14.38;;;10.75;;
57433;SDS011;43277;52.672;6.984;2023-01-28T03:04:46;15.52;;;14.23;;
57433;SDS011;43277;52.672;6.984;2023-01-28T03:07:19;17.75;;;16.15;;
57433;SDS011;43277;52.672;6.984;2023-01-28T03:09:47;14.02;;;12.52;;
57433;SDS011;43277;52.672;6.984;2023-01-28T03:12:17;17.48;;;12.27;;
57433;SDS011;43277;52.672;6.984;2023-01-28T03:15:06;15.23;;;12.35;;
57433;SDS011;43277;52.672;6.984;2023-01-28T03:23:45;13.27;;;12.18;;
57433;SDS011;43277;52.672;6.984;2023-01-28T03:26:30;13.32;;;12.20;;
57433;SDS011;43277;52.672;6.984;2023-01-28T03:29:21;12.40;;;10.70;;
57433;SDS011;43277;52.672;6.984;2023-01-28T03:32:07;11.63;;;10.43;;
57433;SDS011;43277;52.672;6.984;2023-01-28T03:34:53;13.00;;;11.70;;
57433;SDS011;43277;52.672;6.984;2023-01-28T03:37:37;11.30;;;10.02;;
57433;SDS011;43277;52.672;6.984;2023-01-28T03:40:04;10.77;;;9.73;;
57433;SDS011;43277;52.672;6.984;2023-01-28T03:42:31;11.02;;;9.52;;
57433;SDS011;43277;52.672;6.984;2023-01-28T03:44:57;10.48;;;9.40;;
57433;SDS011;43277;52.672;6.984;2023-01-28T03:47:26;12.05;;;10.93;;
57433;SDS011;43277;52.672;6.984;2023-01-28T03:49:53;9.45;;;8.45;;
57433;SDS011;43277;52.672;6.984;2023-01-28T03:52:24;10.32;;;9.43;;
57433;SDS011;43277;52.672;6.984;2023-01-28T03:54:54;9.10;;;7.93;;
57433;SDS011;43277;52.672;6.984;2023-01-28T03:57:21;9.60;;;8.30;;
57433;SDS011;43277;52.672;6.984;2023-01-28T03:59:51;10.40;;;9.05;;
57433;SDS011;43277;52.672;6.984;2023-01-28T04:02:21;10.73;;;9.63;;
57433;SDS011;43277;52.672;6.984;2023-01-28T04:04:47;10.57;;;9.05;;
57433;SDS011;43277;52.672;6.984;2023-01-28T04:07:14;11.60;;;8.85;;
57433;SDS011;43277;52.672;6.984;2023-01-28T04:09:40;8.98;;;8.07;;
57433;SDS011;43277;52.672;6.984;2023-01-28T04:12:07;12.30;;;11.13;;
57433;SDS011;43277;52.672;6.984;2023-01-28T04:14:33;11.45;;;10.45;;
57433;SDS011;43277;52.672;6.984;2023-01-28T04:16:59;11.98;;;10.88;;
57433;SDS011;43277;52.672;6.984;2023-01-28T04:19:25;11.98;;;10.65;;
57433;SDS011;43277;52.672;6.984;2023-01-28T04:21:52;10.60;;;9.23;;
57433;SDS011;43277;52.672;6.984;2023-01-28T04:24:18;10.13;;;8.65;;
57433;SDS011;43277;52.672;6.984;2023-01-28T04:26:45;10.38;;;9.45;;
57433;SDS011;43277;52.672;6.984;2023-01-28T04:29:10;11.75;;;9.48;;
57433;SDS011;43277;52.672;6.984;2023-01-28T04:31:36;10.95;;;9.95;;
57433;SDS011;43277;52.672;6.984;2023-01-28T04:34:01;11.18;;;10.05;;
57433;SDS011;43277;52.672;6.984;2023-01-28T04:36:27;10.68;;;9.50;;
57433;SDS011;43277;52.672;6.984;2023-01-28T04:38:52;11.32;;;10.23;;
57433;SDS011;43277;52.672;6.984;2023-01-28T04:41:18;10.60;;;9.63;;
57433;SDS011;43277;52.672;6.984;2023-01-28T04:43:44;11.07;;;10.07;;
57433;SDS011;43277;52.672;6.984;2023-01-28T04:46:10;10.50;;;8.93;;
57433;SDS011;43277;52.672;6.984;2023-01-28T04:48:35;10.23;;;8.70;;
57433;SDS011;43277;52.672;6.984;2023-01-28T04:51:02;10.63;;;9.73;;
57433;SDS011;43277;52.672;6.984;2023-01-28T04:53:28;11.65;;;10.52;;
57433;SDS011;43277;52.672;6.984;2023-01-28T04:55:55;10.95;;;9.95;;
57433;SDS011;43277;52.672;6.984;2023-01-28T04:58:21;12.68;;;9.23;;
57433;SDS011;43277;52.672;6.984;2023-01-28T05:00:50;10.48;;;9.02;;
57433;SDS011;43277;52.672;6.984;2023-01-28T05:03:21;10.35;;;9.35;;
57433;SDS011;43277;52.672;6.984;2023-01-28T05:05:47;10.15;;;9.23;;
57433;SDS011;43277;52.672;6.984;2023-01-28T05:08:13;11.90;;;10.80;;
57433;SDS011;43277;52.672;6.984;2023-01-28T05:10:39;10.68;;;9.68;;
57433;SDS011;43277;52.672;6.984;2023-01-28T05:13:05;10.85;;;9.18;;
57433;SDS011;43277;52.672;6.984;2023-01-28T05:15:30;10.20;;;9.10;;
57433;SDS011;43277;52.672;6.984;2023-01-28T05:17:56;10.55;;;9.15;;
57433;SDS011;43277;52.672;6.984;2023-01-28T05:20:22;10.35;;;8.77;;
57433;SDS011;43277;52.672;6.984;2023-01-28T05:22:48;11.85;;;10.75;;
57433;SDS011;43277;52.672;6.984;2023-01-28T05:25:13;10.07;;;9.18;;
57433;SDS011;43277;52.672;6.984;2023-01-28T05:27:39;9.95;;;8.55;;
57433;SDS011;43277;52.672;6.984;2023-01-28T05:30:06;13.40;;;9.45;;
57433;SDS011;43277;52.672;6.984;2023-01-28T05:32:32;11.45;;;10.35;;
57433;SDS011;43277;52.672;6.984;2023-01-28T05:34:58;10.95;;;9.95;;
57433;SDS011;43277;52.672;6.984;2023-01-28T05:37:23;10.25;;;9.35;;
57433;SDS011;43277;52.672;6.984;2023-01-28T05:39:49;9.27;;;8.38;;
57433;SDS011;43277;52.672;6.984;2023-01-28T05:42:16;11.68;;;9.35;;
57433;SDS011;43277;52.672;6.984;2023-01-28T05:45:22;10.45;;;8.95;;
57433;SDS011;43277;52.672;6.984;2023-01-28T05:47:47;10.77;;;8.70;;
57433;SDS011;43277;52.672;6.984;2023-01-28T05:50:13;10.43;;;8.70;;
57433;SDS011;43277;52.672;6.984;2023-01-28T05:52:39;12.25;;;8.82;;
57433;SDS011;43277;52.672;6.984;2023-01-28T05:55:05;10.05;;;8.23;;
57433;SDS011;43277;52.672;6.984;2023-01-28T05:57:31;11.77;;;10.75;;
57433;SDS011;43277;52.672;6.984;2023-01-28T05:59:57;10.48;;;9.48;;
57433;SDS011;43277;52.672;6.984;2023-01-28T06:02:23;11.60;;;10.50;;
57433;SDS011;43277;52.672;6.984;2023-01-28T06:04:48;12.80;;;9.10;;
57433;SDS011;43277;52.672;6.984;2023-01-28T06:07:14;10.10;;;8.18;;
57433;SDS011;43277;52.672;6.984;2023-01-28T06:09:43;11.43;;;8.15;;
57433;SDS011;43277;52.672;6.984;2023-01-28T06:12:09;10.32;;;8.75;;
57433;SDS011;43277;52.672;6.984;2023-01-28T06:14:34;10.07;;;9.07;;
57433;SDS011;43277;52.672;6.984;2023-01-28T06:17:00;11.10;;;10.10;;
57433;SDS011;43277;52.672;6.984;2023-01-28T06:19:26;10.10;;;8.80;;
57433;SDS011;43277;52.672;6.984;2023-01-28T06:21:51;12.85;;;8.75;;
57433;SDS011;43277;52.672;6.984;2023-01-28T06:24:17;9.95;;;9.05;;
57433;SDS011;43277;52.672;6.984;2023-01-28T06:26:43;9.50;;;8.60;;
57433;SDS011;43277;52.672;6.984;2023-01-28T06:29:08;9.25;;;8.35;;
57433;SDS011;43277;52.672;6.984;2023-01-28T06:31:34;9.55;;;8.07;;
57433;SDS011;43277;52.672;6.984;2023-01-28T06:34:00;9.90;;;8.20;;
57433;SDS011;43277;52.672;6.984;2023-01-28T06:36:26;9.88;;;8.00;;
57433;SDS011;43277;52.672;6.984;2023-01-28T06:38:52;10.90;;;8.77;;
57433;SDS011;43277;52.672;6.984;2023-01-28T06:41:17;10.77;;;8.63;;
57433;SDS011;43277;52.672;6.984;2023-01-28T06:43:43;11.75;;;9.70;;
57433;SDS011;43277;52.672;6.984;2023-01-28T06:46:08;11.90;;;10.70;;
57433;SDS011;43277;52.672;6.984;2023-01-28T06:48:34;10.40;;;7.88;;
57433;SDS011;43277;52.672;6.984;2023-01-28T06:50:59;10.23;;;7.75;;
57433;SDS011;43277;52.672;6.984;2023-01-28T06:53:25;9.85;;;8.20;;
57433;SDS011;43277;52.672;6.984;2023-01-28T06:55:51;11.05;;;8.18;;
57433;SDS011;43277;52.672;6.984;2023-01-28T06:58:16;10.02;;;8.10;;
57433;SDS011;43277;52.672;6.984;2023-01-28T07:00:42;10.85;;;9.75;;
57433;SDS011;43277;52.672;6.984;2023-01-28T07:03:07;9.55;;;8.15;;
57433;SDS011;43277;52.672;6.984;2023-01-28T07:05:33;9.80;;;8.20;;
57433;SDS011;43277;52.672;6.984;2023-01-28T07:07:58;13.20;;;8.57;;
57433;SDS011;43277;52.672;6.984;2023-01-28T07:10:26;9.82;;;8.75;;
57433;SDS011;43277;52.672;6.984;2023-01-28T07:12:51;9.80;;;8.55;;
57433;SDS011;43277;52.672;6.984;2023-01-28T07:15:17;10.82;;;8.15;;
57433;SDS011;43277;52.672;6.984;2023-01-28T07:17:43;9.77;;;8.77;;
57433;SDS011;43277;52.672;6.984;2023-01-28T07:20:10;12.10;;;8.68;;
57433;SDS011;43277;52.672;6.984;2023-01-28T07:22:41;10.43;;;8.52;;
57433;SDS011;43277;52.672;6.984;2023-01-28T07:25:08;11.02;;;8.60;;
57433;SDS011;43277;52.672;6.984;2023-01-28T07:27:35;11.57;;;8.93;;
57433;SDS011;43277;52.672;6.984;2023-01-28T07:30:01;10.20;;;9.15;;
57433;SDS011;43277;52.672;6.984;2023-01-28T07:32:27;12.50;;;8.80;;
57433;SDS011;43277;52.672;6.984;2023-01-28T07:34:52;9.95;;;8.57;;
57433;SDS011;43277;52.672;6.984;2023-01-28T07:37:18;10.68;;;9.60;;
57433;SDS011;43277;52.672;6.984;2023-01-28T07:39:45;11.90;;;8.65;;
57433;SDS011;43277;52.672;6.984;2023-01-28T07:42:10;11.52;;;8.80;;
57433;SDS011;43277;52.672;6.984;2023-01-28T07:44:36;11.85;;;10.65;;
57433;SDS011;43277;52.672;6.984;2023-01-28T07:47:02;11.05;;;8.85;;
57433;SDS011;43277;52.672;6.984;2023-01-28T07:49:28;11.30;;;8.75;;
57433;SDS011;43277;52.672;6.984;2023-01-28T07:51:54;12.75;;;9.07;;
57433;SDS011;43277;52.672;6.984;2023-01-28T07:54:20;10.15;;;9.02;;
57433;SDS011;43277;52.672;6.984;2023-01-28T07:56:45;13.05;;;8.52;;
57433;SDS011;43277;52.672;6.984;2023-01-28T07:59:11;12.30;;;9.45;;
57433;SDS011;43277;52.672;6.984;2023-01-28T08:01:37;10.20;;;8.13;;
57433;SDS011;43277;52.672;6.984;2023-01-28T08:04:02;10.88;;;9.75;;
57433;SDS011;43277;52.672;6.984;2023-01-28T08:06:28;10.75;;;9.50;;
57433;SDS011;43277;52.672;6.984;2023-01-28T08:08:54;11.68;;;9.13;;
57433;SDS011;43277;52.672;6.984;2023-01-28T08:11:19;10.88;;;8.90;;
57433;SDS011;43277;52.672;6.984;2023-01-28T08:13:45;10.60;;;8.55;;
57433;SDS011;43277;52.672;6.984;2023-01-28T08:16:12;11.82;;;10.73;;
57433;SDS011;43277;52.672;6.984;2023-01-28T08:18:38;12.82;;;11.52;;
57433;SDS011;43277;52.672;6.984;2023-01-28T08:21:03;12.07;;;10.88;;
57433;SDS011;43277;52.672;6.984;2023-01-28T08:23:29;13.63;;;9.13;;
57433;SDS011;43277;52.672;6.984;2023-01-28T08:25:56;11.52;;;9.23;;
57433;SDS011;43277;52.672;6.984;2023-01-28T08:28:22;11.70;;;8.50;;
57433;SDS011;43277;52.672;6.984;2023-01-28T08:30:48;12.57;;;11.38;;
57433;SDS011;43277;52.672;6.984;2023-01-28T08:33:14;11.45;;;9.20;;
57433;SDS011;43277;52.672;6.984;2023-01-28T08:35:41;11.70;;;9.25;;
57433;SDS011;43277;52.672;6.984;2023-01-28T08:38:07;10.73;;;8.38;;
57433;SDS011;43277;52.672;6.984;2023-01-28T08:40:34;11.02;;;9.98;;
57433;SDS011;43277;52.672;6.984;2023-01-28T08:43:00;13.20;;;9.27;;
57433;SDS011;43277;52.672;6.984;2023-01-28T08:45:26;11.48;;;10.30;;
57433;SDS011;43277;52.672;6.984;2023-01-28T08:47:53;13.70;;;9.48;;
57433;SDS011;43277;52.672;6.984;2023-01-28T08:50:21;12.48;;;11.15;;
57433;SDS011;43277;52.672;6.984;2023-01-28T08:52:48;12.18;;;10.98;;
57433;SDS011;43277;52.672;6.984;2023-01-28T08:55:18;12.57;;;10.23;;
57433;SDS011;43277;52.672;6.984;2023-01-28T08:57:44;12.20;;;9.70;;
57433;SDS011;43277;52.672;6.984;2023-01-28T09:00:10;14.13;;;12.75;;
57433;SDS011;43277;52.672;6.984;2023-01-28T09:02:36;15.60;;;10.45;;
57433;SDS011;43277;52.672;6.984;2023-01-28T09:05:02;13.80;;;12.50;;
57433;SDS011;43277;52.672;6.984;2023-01-28T09:07:29;14.70;;;10.25;;
57433;SDS011;43277;52.672;6.984;2023-01-28T09:09:55;16.42;;;11.00;;
57433;SDS011;43277;52.672;6.984;2023-01-28T09:12:21;14.18;;;10.60;;
57433;SDS011;43277;52.672;6.984;2023-01-28T09:14:46;15.15;;;10.88;;
57433;SDS011;43277;52.672;6.984;2023-01-28T09:17:12;16.33;;;14.73;;
57433;SDS011;43277;52.672;6.984;2023-01-28T09:19:38;16.50;;;14.93;;
57433;SDS011;43277;52.672;6.984;2023-01-28T09:22:03;15.82;;;12.55;;
57433;SDS011;43277;52.672;6.984;2023-01-28T09:24:29;16.88;;;15.27;;
57433;SDS011;43277;52.672;6.984;2023-01-28T09:26:55;17.48;;;13.48;;
57433;SDS011;43277;52.672;6.984;2023-01-28T09:29:21;17.23;;;15.52;;
57433;SDS011;43277;52.672;6.984;2023-01-28T09:31:46;16.33;;;13.23;;
57433;SDS011;43277;52.672;6.984;2023-01-28T09:34:12;17.00;;;15.45;;
57433;SDS011;43277;52.672;6.984;2023-01-28T09:36:37;18.38;;;13.60;;
57433;SDS011;43277;52.672;6.984;2023-01-28T09:39:03;17.77;;;16.17;;
57433;SDS011;43277;52.672;6.984;2023-01-28T09:41:41;17.45;;;15.85;;
57433;SDS011;43277;52.672;6.984;2023-01-28T09:44:57;16.08;;;12.38;;
57433;SDS011;43277;52.672;6.984;2023-01-28T09:47:33;17.00;;;12.07;;
57433;SDS011;43277;52.672;6.984;2023-01-28T09:53:06;16.05;;;14.63;;
57433;SDS011;43277;52.672;6.984;2023-01-28T09:55:38;16.00;;;14.52;;
57433;SDS011;43277;52.672;6.984;2023-01-28T09:58:12;14.55;;;11.43;;
57433;SDS011;43277;52.672;6.984;2023-01-28T10:00:59;16.88;;;15.38;;
57433;SDS011;43277;52.672;6.984;2023-01-28T10:14:30;14.85;;;13.55;;
57433;SDS011;43277;52.672;6.984;2023-01-28T10:19:55;14.57;;;13.13;;
57433;SDS011;43277;52.672;6.984;2023-01-28T10:22:31;15.07;;;13.73;;
57433;SDS011;43277;52.672;6.984;2023-01-28T10:25:02;14.90;;;13.50;;
57433;SDS011;43277;52.672;6.984;2023-01-28T10:27:39;14.40;;;12.93;;
57433;SDS011;43277;52.672;6.984;2023-01-28T10:30:24;14.02;;;12.75;;
57433;SDS011;43277;52.672;6.984;2023-01-28T10:32:53;15.60;;;13.45;;
57433;SDS011;43277;52.672;6.984;2023-01-28T10:35:22;13.15;;;11.02;;
57433;SDS011;43277;52.672;6.984;2023-01-28T10:37:48;16.17;;;14.57;;
57433;SDS011;43277;52.672;6.984;2023-01-28T10:40:17;14.35;;;13.00;;
57433;SDS011;43277;52.672;6.984;2023-01-28T10:42:43;14.40;;;13.05;;
57433;SDS011;43277;52.672;6.984;2023-01-28T10:48:01;13.50;;;12.27;;
57433;SDS011;43277;52.672;6.984;2023-01-28T10:50:59;12.63;;;11.45;;
57433;SDS011;43277;52.672;6.984;2023-01-28T10:53:40;13.40;;;12.10;;
57433;SDS011;43277;52.672;6.984;2023-01-28T10:59:02;12.35;;;11.18;;
57433;SDS011;43277;52.672;6.984;2023-01-28T11:01:46;11.43;;;9.82;;
57433;SDS011;43277;52.672;6.984;2023-01-28T11:04:34;10.98;;;9.88;;
57433;SDS011;43277;52.672;6.984;2023-01-28T11:09:46;11.52;;;10.32;;
57433;SDS011;43277;52.672;6.984;2023-01-28T11:12:20;11.05;;;9.95;;
57433;SDS011;43277;52.672;6.984;2023-01-28T11:14:53;11.40;;;10.30;;
57433;SDS011;43277;52.672;6.984;2023-01-28T11:17:27;9.95;;;8.95;;
57433;SDS011;43277;52.672;6.984;2023-01-28T11:19:56;9.65;;;8.75;;
57433;SDS011;43277;52.672;6.984;2023-01-28T11:22:37;10.68;;;9.57;;
57433;SDS011;43277;52.672;6.984;2023-01-28T11:25:29;9.80;;;8.00;;
57433;SDS011;43277;52.672;6.984;2023-01-28T11:27:53;10.43;;;8.35;;
57433;SDS011;43277;52.672;6.984;2023-01-28T11:30:23;9.48;;;8.45;;
57433;SDS011;43277;52.672;6.984;2023-01-28T11:32:56;9.05;;;8.02;;
57433;SDS011;43277;52.672;6.984;2023-01-28T11:35:29;8.65;;;7.75;;
57433;SDS011;43277;52.672;6.984;2023-01-28T11:37:58;9.73;;;8.70;;
57433;SDS011;43277;52.672;6.984;2023-01-28T11:40:25;9.77;;;8.40;;
57433;SDS011;43277;52.672;6.984;2023-01-28T11:42:52;10.30;;;8.80;;
57433;SDS011;43277;52.672;6.984;2023-01-28T11:45:35;10.93;;;9.82;;
57433;SDS011;43277;52.672;6.984;2023-01-28T11:48:14;11.88;;;10.73;;
57433;SDS011;43277;52.672;6.984;2023-01-28T11:50:56;12.30;;;11.10;;
57433;SDS011;43277;52.672;6.984;2023-01-28T11:53:34;12.00;;;10.82;;
57433;SDS011;43277;52.672;6.984;2023-01-28T11:56:17;12.43;;;11.15;;
57433;SDS011;43277;52.672;6.984;2023-01-28T12:01:31;13.30;;;12.05;;
57433;SDS011;43277;52.672;6.984;2023-01-28T12:18:10;11.25;;;10.15;;
57433;SDS011;43277;52.672;6.984;2023-01-28T12:23:42;10.85;;;9.75;;
57433;SDS011;43277;52.672;6.984;2023-01-28T12:27:40;11.40;;;10.30;;
57433;SDS011;43277;52.672;6.984;2023-01-28T12:35:52;11.65;;;10.20;;
57433;SDS011;43277;52.672;6.984;2023-01-28T12:38:47;12.65;;;10.38;;
57433;SDS011;43277;52.672;6.984;2023-01-28T12:41:22;9.68;;;8.68;;
57433;SDS011;43277;52.672;6.984;2023-01-28T12:44:01;10.65;;;9.48;;
57433;SDS011;43277;52.672;6.984;2023-01-28T12:49:09;10.32;;;9.32;;
57433;SDS011;43277;52.672;6.984;2023-01-28T12:57:28;12.77;;;9.63;;
57433;SDS011;43277;52.672;6.984;2023-01-28T12:59:57;11.65;;;10.45;;
57433;SDS011;43277;52.672;6.984;2023-01-28T13:02:34;11.88;;;10.35;;
57433;SDS011;43277;52.672;6.984;2023-01-28T13:05:15;13.00;;;10.43;;
57433;SDS011;43277;52.672;6.984;2023-01-28T13:10:24;11.25;;;10.05;;
57433;SDS011;43277;52.672;6.984;2023-01-28T13:13:00;10.85;;;9.75;;
57433;SDS011;43277;52.672;6.984;2023-01-28T13:15:28;11.27;;;9.70;;
57433;SDS011;43277;52.672;6.984;2023-01-28T13:18:02;11.23;;;9.98;;
57433;SDS011;43277;52.672;6.984;2023-01-28T13:23:23;11.15;;;10.05;;
57433;SDS011;43277;52.672;6.984;2023-01-28T13:25:54;20.65;;;11.40;;
57433;SDS011;43277;52.672;6.984;2023-01-28T13:28:38;76.40;;;18.33;;
57433;SDS011;43277;52.672;6.984;2023-01-28T13:31:08;13.50;;;9.70;;
57433;SDS011;43277;52.672;6.984;2023-01-28T13:33:41;39.40;;;13.60;;
57433;SDS011;43277;52.672;6.984;2023-01-28T13:39:16;11.38;;;9.98;;
57433;SDS011;43277;52.672;6.984;2023-01-28T13:41:46;17.35;;;11.65;;
57433;SDS011;43277;52.672;6.984;2023-01-28T13:44:19;29.67;;;13.10;;
57433;SDS011;43277;52.672;6.984;2023-01-28T13:46:53;31.85;;;13.32;;
57433;SDS011;43277;52.672;6.984;2023-01-28T13:49:36;25.73;;;11.43;;
57433;SDS011;43277;52.672;6.984;2023-01-28T13:52:07;15.85;;;10.85;;
57433;SDS011;43277;52.672;6.984;2023-01-28T13:54:42;11.85;;;9.10;;
57433;SDS011;43277;52.672;6.984;2023-01-28T13:57:22;10.70;;;9.05;;
57433;SDS011;43277;52.672;6.984;2023-01-28T14:02:42;10.52;;;8.32;;
57433;SDS011;43277;52.672;6.984;2023-01-28T14:11:09;10.88;;;8.68;;
57433;SDS011;43277;52.672;6.984;2023-01-28T14:19:02;9.65;;;8.18;;
57433;SDS011;43277;52.672;6.984;2023-01-28T14:21:30;11.25;;;9.43;;
57433;SDS011;43277;52.672;6.984;2023-01-28T14:23:58;9.98;;;8.90;;
57433;SDS011;43277;52.672;6.984;2023-01-28T14:26:30;11.50;;;9.13;;
57433;SDS011;43277;52.672;6.984;2023-01-28T14:29:26;15.32;;;10.25;;
57433;SDS011;43277;52.672;6.984;2023-01-28T14:32:17;10.68;;;9.38;;
57433;SDS011;43277;52.672;6.984;2023-01-28T14:34:45;12.27;;;9.82;;
57433;SDS011;43277;52.672;6.984;2023-01-28T14:37:13;11.77;;;9.23;;
57433;SDS011;43277;52.672;6.984;2023-01-28T14:39:43;11.20;;;7.95;;
57433;SDS011;43277;52.672;6.984;2023-01-28T14:42:13;10.50;;;8.73;;
57433;SDS011;43277;52.672;6.984;2023-01-28T14:44:44;11.68;;;10.15;;
57433;SDS011;43277;52.672;6.984;2023-01-28T14:58:02;10.57;;;9.48;;
57433;SDS011;43277;52.672;6.984;2023-01-28T15:00:31;10.98;;;9.85;;
57433;SDS011;43277;52.672;6.984;2023-01-28T15:02:58;10.75;;;9.65;;
57433;SDS011;43277;52.672;6.984;2023-01-28T15:05:28;11.27;;;9.65;;
57433;SDS011;43277;52.672;6.984;2023-01-28T15:07:55;12.15;;;9.90;;
57433;SDS011;43277;52.672;6.984;2023-01-28T15:12:55;10.70;;;9.50;;
57433;SDS011;43277;52.672;6.984;2023-01-28T15:17:53;11.27;;;9.43;;
57433;SDS011;43277;52.672;6.984;2023-01-28T15:20:22;12.57;;;10.52;;
57433;SDS011;43277;52.672;6.984;2023-01-28T15:22:49;16.15;;;10.43;;
57433;SDS011;43277;52.672;6.984;2023-01-28T15:25:17;12.35;;;10.70;;
57433;SDS011;43277;52.672;6.984;2023-01-28T15:27:45;11.88;;;10.57;;
57433;SDS011;43277;52.672;6.984;2023-01-28T15:30:20;11.88;;;9.80;;
57433;SDS011;43277;52.672;6.984;2023-01-28T15:33:01;11.90;;;9.77;;
57433;SDS011;43277;52.672;6.984;2023-01-28T15:35:36;19.73;;;17.77;;
57433;SDS011;43277;52.672;6.984;2023-01-28T15:38:02;20.85;;;18.88;;
57433;SDS011;43277;52.672;6.984;2023-01-28T15:40:28;13.65;;;12.25;;
57433;SDS011;43277;52.672;6.984;2023-01-28T15:42:55;12.30;;;10.88;;
57433;SDS011;43277;52.672;6.984;2023-01-28T15:45:23;13.95;;;12.45;;
57433;SDS011;43277;52.672;6.984;2023-01-28T15:47:50;13.70;;;12.30;;
57433;SDS011;43277;52.672;6.984;2023-01-28T15:50:23;13.38;;;12.00;;
57433;SDS011;43277;52.672;6.984;2023-01-28T15:52:50;15.95;;;13.98;;
57433;SDS011;43277;52.672;6.984;2023-01-28T15:57:51;17.05;;;15.25;;
57433;SDS011;43277;52.672;6.984;2023-01-28T16:00:19;13.30;;;11.88;;
57433;SDS011;43277;52.672;6.984;2023-01-28T16:02:46;14.63;;;12.18;;
57433;SDS011;43277;52.672;6.984;2023-01-28T16:05:22;12.35;;;11.05;;
57433;SDS011;43277;52.672;6.984;2023-01-28T16:07:57;12.82;;;10.50;;
57433;SDS011;43277;52.672;6.984;2023-01-28T16:10:28;13.52;;;8.70;;
57433;SDS011;43277;52.672;6.984;2023-01-28T16:12:55;12.73;;;11.00;;
57433;SDS011;43277;52.672;6.984;2023-01-28T16:15:35;11.60;;;10.40;;
57433;SDS011;43277;52.672;6.984;2023-01-28T16:18:03;12.95;;;10.85;;
57433;SDS011;43277;52.672;6.984;2023-01-28T16:20:30;14.43;;;11.68;;
57433;SDS011;43277;52.672;6.984;2023-01-28T16:22:57;13.43;;;12.13;;
57433;SDS011;43277;52.672;6.984;2023-01-28T16:27:55;14.38;;;12.90;;
57433;SDS011;43277;52.672;6.984;2023-01-28T16:30:22;13.30;;;11.98;;
57433;SDS011;43277;52.672;6.984;2023-01-28T16:32:47;12.95;;;11.65;;
57433;SDS011;43277;52.672;6.984;2023-01-28T16:37:42;14.13;;;12.23;;
57433;SDS011;43277;52.672;6.984;2023-01-28T16:40:08;13.82;;;12.43;;
57433;SDS011;43277;52.672;6.984;2023-01-28T16:42:36;15.00;;;13.50;;
57433;SDS011;43277;52.672;6.984;2023-01-28T16:45:02;14.15;;;12.73;;
57433;SDS011;43277;52.672;6.984;2023-01-28T16:47:28;14.63;;;12.90;;
57433;SDS011;43277;52.672;6.984;2023-01-28T16:49:53;14.73;;;13.23;;
57433;SDS011;43277;52.672;6.984;2023-01-28T16:52:19;14.45;;;12.95;;
57433;SDS011;43277;52.672;6.984;2023-01-28T16:54:45;15.88;;;13.18;;
57433;SDS011;43277;52.672;6.984;2023-01-28T16:57:14;15.20;;;13.60;;